Time;durP1;ratioP1;P1;durP2;ratioP2;P2;SDS_P1;SDS_P2;PMS_P1;PMS_P2;Temp;Humidity;BMP_temperature;BMP_pressure;BME280_temperature;BME280_humidity;BME280_pressure;Samples;Min_cycle;Max_cycle;Signal;HPM_P1;HPM_P2
2021/10/14 00:00:17;;;;;;;1999.90;999.90;;;3.30;99.90;;;;;;5034289;28;20057;-80
2021/10/14 00:02:43;;;;;;;1999.90;999.90;;;3.30;99.90;;;;;;5034329;28;20037;-80
2021/10/14 00:05:09;;;;;;;1999.90;999.90;;;3.40;99.90;;;;;;5033084;28;20108;-80
2021/10/14 00:07:34;;;;;;;1999.90;999.90;;;3.40;99.90;;;;;;5034167;28;20104;-79
2021/10/14 00:10:00;;;;;;;1999.90;999.90;;;3.50;99.90;;;;;;5034379;28;20057;-78
2021/10/14 00:12:26;;;;;;;1999.90;999.90;;;3.50;99.90;;;;;;5032942;28;20119;-78
2021/10/14 00:14:51;;;;;;;1999.90;999.90;;;3.50;99.90;;;;;;5032780;28;20025;-80
2021/10/14 00:17:17;;;;;;;1999.90;999.90;;;3.50;99.90;;;;;;5032846;28;20595;-81
2021/10/14 00:19:43;;;;;;;1999.90;999.90;;;3.60;99.90;;;;;;5032810;28;20025;-81
2021/10/14 00:22:08;;;;;;;1999.90;999.90;;;3.60;99.90;;;;;;5032224;28;20116;-78
2021/10/14 00:24:34;;;;;;;1999.90;999.90;;;3.60;99.90;;;;;;5032693;28;20025;-82
2021/10/14 00:27:00;;;;;;;1999.90;999.90;;;3.70;99.90;;;;;;5032651;28;20030;-78
2021/10/14 00:29:25;;;;;;;1999.90;999.90;;;3.60;99.90;;;;;;5033977;28;20046;-81
2021/10/14 00:31:51;;;;;;;1999.90;999.90;;;3.70;99.90;;;;;;5033956;28;20400;-80
2021/10/14 00:34:17;;;;;;;1999.90;999.90;;;3.70;99.90;;;;;;5016380;28;20061;-79
2021/10/14 00:36:42;;;;;;;1999.90;999.90;;;3.70;99.90;;;;;;5033596;28;20037;-80
2021/10/14 00:39:09;;;;;;;1999.90;999.90;;;3.70;99.90;;;;;;5016305;28;20049;-81
2021/10/14 00:41:35;;;;;;;1999.90;999.90;;;3.70;99.90;;;;;;5033892;28;20040;-80
2021/10/14 00:44:01;;;;;;;1999.90;999.90;;;3.70;99.90;;;;;;5033498;28;20040;-79
2021/10/14 00:46:26;;;;;;;1999.90;999.90;;;3.70;99.90;;;;;;5033669;28;20029;-82
2021/10/14 00:48:52;;;;;;;1999.90;999.90;;;3.60;99.90;;;;;;5033329;28;20108;-80
2021/10/14 00:51:18;;;;;;;1999.90;999.90;;;3.60;99.90;;;;;;5016043;28;20026;-80
2021/10/14 00:53:45;;;;;;;1999.90;999.90;;;3.50;99.90;;;;;;5033354;28;20033;-79
2021/10/14 00:56:11;;;;;;;1999.90;999.90;;;3.40;99.90;;;;;;5033368;28;20465;-79
2021/10/14 00:58:37;;;;;;;1999.90;999.90;;;3.50;99.90;;;;;;5015669;28;20034;-81
2021/10/14 01:01:04;;;;;;;1999.90;999.90;;;3.60;99.90;;;;;;5033230;28;20377;-80
2021/10/14 01:03:31;;;;;;;1999.90;999.90;;;3.50;99.90;;;;;;5015595;28;20026;-79
2021/10/14 01:05:58;;;;;;;1999.90;999.90;;;3.50;99.90;;;;;;5015505;28;20495;-81
2021/10/14 01:08:25;;;;;;;1999.90;999.90;;;3.50;99.90;;;;;;5032986;28;20053;-79
2021/10/14 01:10:51;;;;;;;1999.90;999.90;;;3.40;99.90;;;;;;5033121;28;20029;-79
2021/10/14 01:13:18;;;;;;;1999.90;999.90;;;3.40;99.90;;;;;;5033041;28;20048;-80
2021/10/14 01:15:46;;;;;;;1999.90;999.90;;;3.40;99.90;;;;;;5015490;28;20022;-78
2021/10/14 01:18:12;;;;;;;1999.90;999.90;;;3.20;99.90;;;;;;5015152;28;20034;-80
2021/10/14 01:20:38;;;;;;;1999.90;999.90;;;3.20;99.90;;;;;;5015098;28;20034;-80
2021/10/14 01:23:04;;;;;;;1999.90;999.90;;;3.10;99.90;;;;;;5015214;28;20025;-78
2021/10/14 01:25:30;;;;;;;1999.90;999.90;;;3.20;99.90;;;;;;5014993;28;20404;-80
2021/10/14 01:27:57;;;;;;;1999.90;999.90;;;3.10;99.90;;;;;;5032959;28;20147;-82
2021/10/14 01:30:22;;;;;;;1999.90;999.90;;;3.10;99.90;;;;;;5032556;28;20060;-80
2021/10/14 01:32:49;;;;;;;1999.90;999.90;;;3.00;99.90;;;;;;5014121;28;20037;-80
2021/10/14 01:35:16;;;;;;;1999.90;999.90;;;2.90;99.90;;;;;;5015244;28;20033;-80
2021/10/14 01:37:42;;;;;;;1999.90;999.90;;;2.90;99.90;;;;;;5032837;28;20018;-80
2021/10/14 01:40:08;;;;;;;1999.90;999.90;;;2.90;99.90;;;;;;5014973;28;20028;-79
2021/10/14 01:42:34;;;;;;;1999.90;999.90;;;2.90;99.90;;;;;;5032553;28;20116;-78
2021/10/14 01:45:00;;;;;;;1999.90;999.90;;;2.80;99.90;;;;;;5014838;28;20417;-81
2021/10/14 01:47:27;;;;;;;1999.90;999.90;;;2.80;99.90;;;;;;5032662;28;20030;-80
2021/10/14 01:49:53;;;;;;;1999.90;999.90;;;2.80;99.90;;;;;;5014761;28;20105;-79
2021/10/14 01:52:18;;;;;;;1999.90;999.90;;;2.80;99.90;;;;;;5014507;28;20124;-81
2021/10/14 01:54:44;;;;;;;1999.90;999.90;;;2.90;99.90;;;;;;5014520;28;20025;-80
2021/10/14 01:57:10;;;;;;;1999.90;999.90;;;2.80;99.90;;;;;;5014732;28;20116;-81
2021/10/14 01:59:35;;;;;;;1999.90;999.90;;;2.90;99.90;;;;;;5015045;28;20059;-79
2021/10/14 02:02:01;;;;;;;1999.90;999.90;;;2.90;99.90;;;;;;5014818;28;20025;-82
2021/10/14 02:04:27;;;;;;;1999.90;999.90;;;2.90;99.90;;;;;;5014275;28;20057;-80
2021/10/14 02:06:52;;;;;;;1999.90;999.90;;;2.80;99.90;;;;;;5014647;28;20022;-79
2021/10/14 02:09:18;;;;;;;1999.90;999.90;;;2.70;99.90;;;;;;5032276;28;20048;-78
2021/10/14 02:11:44;;;;;;;1999.90;999.90;;;2.70;99.90;;;;;;5032485;28;20075;-79
2021/10/14 02:14:09;;;;;;;1999.90;999.90;;;2.60;99.90;;;;;;5032242;28;20601;-80
2021/10/14 02:16:35;;;;;;;1999.90;999.90;;;2.50;99.90;;;;;;5014487;28;20026;-79
2021/10/14 02:19:01;;;;;;;1999.90;999.90;;;2.50;99.90;;;;;;5014536;28;20528;-80
2021/10/14 02:21:26;;;;;;;1999.90;999.90;;;2.50;99.90;;;;;;5014596;28;20457;-79
2021/10/14 02:23:52;;;;;;;1999.90;999.90;;;2.40;99.90;;;;;;5014415;28;20037;-78
2021/10/14 02:26:17;;;;;;;1999.90;999.90;;;2.50;99.90;;;;;;5032054;28;20092;-81
2021/10/14 02:28:43;;;;;;;1999.90;999.90;;;2.40;99.90;;;;;;5032113;28;20029;-80
2021/10/14 02:31:09;;;;;;;1999.90;999.90;;;2.40;99.90;;;;;;5028876;28;20064;-80
2021/10/14 02:33:34;;;;;;;1999.90;999.90;;;2.30;99.90;;;;;;5030732;28;20132;-81
2021/10/14 02:36:00;;;;;;;1999.90;999.90;;;2.20;99.90;;;;;;5031039;28;20060;-80
2021/10/14 02:38:26;;;;;;;1999.90;999.90;;;2.20;99.90;;;;;;5030979;28;20033;-79
2021/10/14 02:40:51;;;;;;;1999.90;999.90;;;2.20;99.90;;;;;;5030679;28;20028;-80
2021/10/14 02:43:17;;;;;;;1999.90;999.90;;;2.10;99.90;;;;;;5031504;28;20487;-81
2021/10/14 02:45:43;;;;;;;1999.90;999.90;;;2.10;99.90;;;;;;5036051;28;20373;-81
2021/10/14 02:48:08;;;;;;;1999.90;999.90;;;2.10;99.90;;;;;;5034646;28;20038;-80
2021/10/14 02:50:34;;;;;;;1999.90;999.90;;;2.00;99.90;;;;;;5035794;28;20082;-80
2021/10/14 02:53:00;;;;;;;1999.90;999.90;;;2.00;99.90;;;;;;5035502;28;20033;-81
2021/10/14 02:55:25;;;;;;;1999.90;999.90;;;2.00;99.90;;;;;;5034326;28;20037;-79
2021/10/14 02:57:51;;;;;;;1999.90;999.90;;;1.90;99.90;;;;;;5035644;28;20021;-81
2021/10/14 03:00:17;;;;;;;1999.90;999.90;;;1.90;99.90;;;;;;5034231;28;20034;-80
2021/10/14 03:02:42;;;;;;;1999.90;999.90;;;1.90;99.90;;;;;;5035726;28;20037;-80
2021/10/14 03:05:08;;;;;;;1999.90;999.90;;;1.80;99.90;;;;;;5033981;28;20084;-80
2021/10/14 03:07:34;;;;;;;1999.90;999.90;;;1.90;99.90;;;;;;5035393;28;20034;-79
2021/10/14 03:10:00;;;;;;;1999.90;999.90;;;1.70;99.90;;;;;;5034121;28;20428;-79
2021/10/14 03:12:26;;;;;;;1999.90;999.90;;;1.70;99.90;;;;;;5033992;28;20033;-79
2021/10/14 03:14:51;;;;;;;1999.90;999.90;;;1.60;99.90;;;;;;5034161;28;20022;-80
2021/10/14 03:17:17;;;;;;;1999.90;999.90;;;1.60;99.90;;;;;;5033948;28;20036;-83
2021/10/14 03:19:42;;;;;;;1999.90;999.90;;;1.50;99.90;;;;;;5034019;28;20087;-80
2021/10/14 03:22:08;;;;;;;1999.90;999.90;;;1.50;99.90;;;;;;5035193;28;20037;-79
2021/10/14 03:24:34;;;;;;;1999.90;999.90;;;1.50;99.90;;;;;;5033918;28;20037;-81
2021/10/14 03:26:59;;;;;;;1999.90;999.90;;;1.50;99.90;;;;;;5033841;28;20350;-80
2021/10/14 03:29:25;;;;;;;1999.90;999.90;;;1.50;99.90;;;;;;5035161;28;20108;-80
2021/10/14 03:31:51;;;;;;;1999.90;999.90;;;1.50;99.90;;;;;;5017654;28;20026;-80
2021/10/14 03:34:16;;;;;;;1999.90;999.90;;;1.40;99.90;;;;;;5017058;28;20116;-78
2021/10/14 03:36:42;;;;;;;1999.90;999.90;;;1.50;99.90;;;;;;5034910;28;20473;-80
2021/10/14 03:39:08;;;;;;;1999.90;999.90;;;1.40;99.90;;;;;;5017361;28;20499;-80
2021/10/14 03:41:33;;;;;;;1999.90;999.90;;;1.40;99.90;;;;;;5017540;28;20021;-80
2021/10/14 03:43:59;;;;;;;1999.90;999.90;;;1.40;99.90;;;;;;5017337;28;20036;-79
2021/10/14 03:46:25;;;;;;;1999.90;999.90;;;1.50;99.90;;;;;;5035079;28;20461;-80
2021/10/14 03:48:50;;;;;;;1999.90;999.90;;;1.40;99.90;;;;;;5017033;28;20175;-80
2021/10/14 03:51:16;;;;;;;1999.90;999.90;;;1.40;99.90;;;;;;5016748;28;20116;-80
2021/10/14 03:53:42;;;;;;;1999.90;999.90;;;1.30;99.90;;;;;;5034812;28;20087;-80
2021/10/14 03:56:07;;;;;;;1999.90;999.90;;;1.40;99.90;;;;;;5016005;28;20021;-79
2021/10/14 03:58:33;;;;;;;1999.90;999.90;;;1.20;99.90;;;;;;5035096;28;20108;-80
2021/10/14 04:00:59;;;;;;;1999.90;999.90;;;1.30;99.90;;;;;;5016558;28;20029;-80
2021/10/14 04:03:24;;;;;;;1999.90;999.90;;;1.40;99.90;;;;;;5034288;28;20036;-79
2021/10/14 04:05:50;;;;;;;1999.90;999.90;;;1.30;99.90;;;;;;5016753;28;20100;-80
2021/10/14 04:08:16;;;;;;;1999.90;999.90;;;1.30;99.90;;;;;;5016425;28;20115;-81
2021/10/14 04:10:41;;;;;;;1999.90;999.90;;;1.20;99.90;;;;;;5016657;28;20033;-80
2021/10/14 04:13:07;;;;;;;1999.90;999.90;;;1.30;99.90;;;;;;5034240;28;20091;-80
2021/10/14 04:15:33;;;;;;;1999.90;999.90;;;1.30;99.90;;;;;;5016703;28;20112;-80
2021/10/14 04:17:58;;;;;;;1999.90;999.90;;;1.20;99.90;;;;;;5034348;28;20535;-82
2021/10/14 04:20:25;;;;;;;1999.90;999.90;;;1.20;99.90;;;;;;5034099;28;20022;-80
2021/10/14 04:22:52;;;;;;;1999.90;999.90;;;1.10;99.90;;;;;;5016262;28;20029;-79
2021/10/14 04:25:18;;;;;;;1999.90;999.90;;;1.10;99.90;;;;;;5016429;28;20026;-80
2021/10/14 04:27:43;;;;;;;1999.90;999.90;;;1.10;99.90;;;;;;5016419;28;20550;-81
2021/10/14 04:30:09;;;;;;;1999.90;999.90;;;1.10;99.90;;;;;;5022698;28;20108;-81
2021/10/14 04:32:35;;;;;;;1999.90;999.90;;;1.00;99.90;;;;;;5032607;28;20040;-80
2021/10/14 04:35:03;;;;;;;1999.90;999.90;;;1.00;99.90;;;;;;5033732;28;20369;-80
2021/10/14 04:37:29;;;;;;;1999.90;999.90;;;1.00;99.90;;;;;;5033426;28;20498;-79
2021/10/14 04:39:54;;;;;;;1999.90;999.90;;;0.80;99.90;;;;;;5032490;28;20026;-80
2021/10/14 04:42:20;;;;;;;1999.90;999.90;;;0.80;99.90;;;;;;5032906;28;20370;-78
2021/10/14 04:44:46;;;;;;;1999.90;999.90;;;0.80;99.90;;;;;;5034400;28;20022;-78
2021/10/14 04:47:18;;;;;;;1999.90;999.90;;;0.80;99.90;;;;;;5033278;28;20025;-79
2021/10/14 04:49:45;;;;;;;1999.90;999.90;;;1.90;99.90;;;;;;5035757;28;20507;-79
2021/10/14 04:52:10;;;;;;;1999.90;999.90;;;1.80;99.90;;;;;;5033484;28;20029;-79
2021/10/14 04:54:36;;;;;;;1999.90;999.90;;;1.60;99.90;;;;;;5031757;28;20021;-79
2021/10/14 04:57:02;;;;;;;1999.90;999.90;;;1.40;99.90;;;;;;5036152;28;20035;-79
2021/10/14 04:59:27;;;;;;;1999.90;999.90;;;1.20;99.90;;;;;;5031570;28;20140;-81
2021/10/14 05:01:53;;;;;;;1999.90;999.90;;;1.00;99.90;;;;;;5031697;28;20083;-81
2021/10/14 05:04:18;;;;;;;1999.90;999.90;;;0.90;99.90;;;;;;5033434;28;20025;-80
2021/10/14 05:06:44;;;;;;;1999.90;999.90;;;0.90;99.90;;;;;;5033382;28;20034;-81
2021/10/14 05:09:10;;;;;;;1999.90;999.90;;;0.80;99.90;;;;;;5032915;28;20432;-80
2021/10/14 05:11:35;;;;;;;1999.90;999.90;;;0.90;99.90;;;;;;5033106;28;20469;-80
2021/10/14 05:14:01;;;;;;;1999.90;999.90;;;0.80;99.90;;;;;;5031665;28;20477;-79
2021/10/14 05:16:31;;;;;;;1999.90;999.90;;;0.80;99.90;;;;;;5031870;28;20473;-81
2021/10/14 05:18:58;;;;;;;1999.90;999.90;;;0.80;99.90;;;;;;5033523;28;20116;-81
2021/10/14 05:21:24;;;;;;;1999.90;999.90;;;0.80;99.90;;;;;;5033249;28;20044;-79
2021/10/14 05:23:50;;;;;;;1999.90;999.90;;;0.70;99.90;;;;;;5032481;28;20029;-78
2021/10/14 05:26:15;;;;;;;1999.90;999.90;;;0.60;99.90;;;;;;5032316;28;20033;-78
2021/10/14 05:28:41;;;;;;;1999.90;999.90;;;0.60;99.90;;;;;;5033683;28;20034;-80
2021/10/14 05:31:07;;;;;;;1999.90;999.90;;;0.80;99.90;;;;;;5031958;28;20132;-81
2021/10/14 05:33:33;;;;;;;1999.90;999.90;;;0.70;99.90;;;;;;5032473;28;20037;-81
2021/10/14 05:35:59;;;;;;;1999.90;999.90;;;0.80;99.90;;;;;;5031874;28;20025;-80
2021/10/14 05:38:25;;;;;;;1999.90;999.90;;;0.70;99.90;;;;;;5032988;28;20167;-79
2021/10/14 05:40:51;;;;;;;1999.90;999.90;;;0.60;99.90;;;;;;5030919;28;20029;-78
2021/10/14 05:43:17;;;;;;;1999.90;999.90;;;0.70;99.90;;;;;;5031634;28;20041;-80
2021/10/14 05:45:42;;;;;;;1999.90;999.90;;;0.70;99.90;;;;;;5031819;28;20021;-79
2021/10/14 05:48:08;;;;;;;1999.90;999.90;;;0.70;99.90;;;;;;5031435;28;20428;-80
2021/10/14 05:50:34;;;;;;;1999.90;999.90;;;0.80;99.90;;;;;;5033064;28;20033;-81
2021/10/14 05:52:59;;;;;;;1999.90;999.90;;;0.70;99.90;;;;;;5031384;28;20396;-79
2021/10/14 05:55:25;;;;;;;1999.90;999.90;;;0.90;99.90;;;;;;5031626;28;20030;-80
2021/10/14 05:57:51;;;;;;;1999.90;999.90;;;0.80;99.90;;;;;;5031461;28;20607;-80
2021/10/14 06:00:17;;;;;;;1999.90;999.90;;;0.90;99.90;;;;;;5032632;28;20037;-79
2021/10/14 06:02:42;;;;;;;1999.90;999.90;;;1.00;99.90;;;;;;5031495;28;20034;-80
2021/10/14 06:05:08;;;;;;;1999.90;999.90;;;1.00;99.90;;;;;;5032409;28;20527;-80
2021/10/14 06:07:34;;;;;;;1999.90;999.90;;;0.90;99.90;;;;;;5031948;28;20021;-78
2021/10/14 06:10:00;;;;;;;1999.90;999.90;;;1.00;99.90;;;;;;5030781;28;20155;-78
2021/10/14 06:12:25;;;;;;;1999.90;999.90;;;1.20;99.90;;;;;;5031797;28;20034;-80
2021/10/14 06:14:51;;;;;;;1999.90;999.90;;;1.20;99.90;;;;;;5032278;28;20026;-80
2021/10/14 06:17:17;;;;;;;1999.90;999.90;;;1.20;99.90;;;;;;5032409;28;20586;-79
2021/10/14 06:19:42;;;;;;;1999.90;999.90;;;1.20;99.90;;;;;;5033900;28;20536;-78
2021/10/14 06:22:08;;;;;;;1999.90;999.90;;;1.20;99.90;;;;;;5035131;28;20160;-80
2021/10/14 06:24:34;;;;;;;1999.90;999.90;;;1.30;99.90;;;;;;5035768;28;20028;-80
2021/10/14 06:26:59;;;;;;;1999.90;999.90;;;1.40;99.90;;;;;;5035722;28;20041;-78
2021/10/14 06:29:25;;;;;;;1999.90;999.90;;;1.50;99.90;;;;;;5035115;28;20144;-80
2021/10/14 06:31:51;;;;;;;1999.90;999.90;;;1.60;99.90;;;;;;5035599;28;20087;-81
2021/10/14 06:34:16;;;;;;;1999.90;999.90;;;1.70;99.90;;;;;;5035680;28;20370;-79
2021/10/14 06:36:42;;;;;;;1999.90;999.90;;;1.80;99.90;;;;;;5035096;28;20040;-79
2021/10/14 06:39:08;;;;;;;1999.90;999.90;;;1.90;99.90;;;;;;5036321;28;20026;-79
2021/10/14 06:41:33;;;;;;;1999.90;999.90;;;1.90;99.90;;;;;;5036664;28;20017;-80
2021/10/14 06:43:59;;;;;;;1999.90;999.90;;;2.10;99.90;;;;;;5036191;28;20036;-78
2021/10/14 06:46:25;;;;;;;1999.90;999.90;;;2.10;99.90;;;;;;5036065;28;20057;-80
2021/10/14 06:48:50;;;;;;;1999.90;999.90;;;2.30;99.90;;;;;;5034756;28;20024;-79
2021/10/14 06:51:16;;;;;;;1999.90;999.90;;;2.20;99.90;;;;;;5035915;28;20432;-78
2021/10/14 06:53:42;;;;;;;1999.90;999.90;;;2.40;99.90;;;;;;5034403;28;20543;-79
2021/10/14 06:56:07;;;;;;;1999.90;999.90;;;2.50;99.90;;;;;;5035655;28;20535;-78
2021/10/14 06:58:33;;;;;;;1999.90;999.90;;;2.50;99.90;;;;;;5034448;28;20120;-78
2021/10/14 07:00:59;;;;;;;1999.90;999.90;;;2.60;99.90;;;;;;5034476;28;20492;-79
2021/10/14 07:03:24;;;;;;;1999.90;999.90;;;4.70;99.90;;;;;;5034258;28;20091;-76
2021/10/14 07:05:50;;;;;;;1999.90;999.90;;;4.70;99.90;;;;;;5035851;28;20104;-84
2021/10/14 07:08:17;;;;;;;1999.90;999.90;;;4.40;99.90;;;;;;5036774;28;20491;-84
2021/10/14 07:10:46;;;;;;;1999.90;999.90;;;4.20;99.90;;;;;;5036943;28;20079;-85
2021/10/14 07:13:13;;;;;;;1999.90;999.90;;;4.00;99.90;;;;;;5035614;28;20042;-85
2021/10/14 07:15:39;;;;;;;1999.90;999.90;;;3.90;99.90;;;;;;5035828;28;20060;-85
2021/10/14 07:18:05;;;;;;;1999.90;999.90;;;4.00;99.90;;;;;;5035816;28;20468;-85
2021/10/14 07:20:31;;;;;;;1999.90;999.90;;;4.10;99.90;;;;;;5036705;28;20029;-84
2021/10/14 07:22:57;;;;;;;1999.90;999.90;;;4.10;99.90;;;;;;5037897;28;20491;-86
2021/10/14 07:25:44;;;;;;;1999.90;999.90;;;4.90;99.90;;;;;;5049093;28;20033;-85
2021/10/14 07:28:10;;;;;;;1999.90;999.90;;;5.50;99.90;;;;;;5034702;28;20156;-84
2021/10/14 07:30:38;;;;;;;1999.90;999.90;;;5.40;99.90;;;;;;5036418;28;20056;-83
2021/10/14 07:33:04;;;;;;;1999.90;999.90;;;5.30;99.90;;;;;;5018471;28;20128;-82
2021/10/14 07:35:33;;;;;;;1999.90;999.90;;;5.30;99.90;;;;;;5018620;28;20022;-85
2021/10/14 07:38:00;;;;;;;1999.90;999.90;;;5.30;99.90;;;;;;5019649;28;20022;-85
2021/10/14 07:40:26;;;;;;;1999.90;999.90;;;5.30;99.90;;;;;;5037014;28;20155;-87
2021/10/14 07:42:52;;;;;;;1999.90;999.90;;;5.40;99.90;;;;;;5018965;28;20057;-86
2021/10/14 07:45:18;;;;;;;1999.90;999.90;;;5.50;99.90;;;;;;5018910;28;20106;-87
2021/10/14 07:47:43;;;;;;;1999.90;999.90;;;5.70;99.90;;;;;;5036719;28;20033;-83
2021/10/14 07:50:09;;;;;;;1999.90;999.90;;;5.80;99.90;;;;;;5036811;28;20044;-83
2021/10/14 07:52:35;;;;;;;1999.90;999.90;;;5.90;99.90;;;;;;5018840;28;20070;-82
2021/10/14 07:55:00;;;;;;;1999.90;999.90;;;6.10;99.90;;;;;;5019055;28;20045;-86
2021/10/14 07:57:26;;;;;;;1999.90;999.90;;;6.30;99.90;;;;;;5018710;28;20029;-86
2021/10/14 07:59:52;;;;;;;1999.90;999.90;;;6.30;99.90;;;;;;5018961;28;20028;-86
2021/10/14 08:02:18;;;;;;;1999.90;999.90;;;6.40;99.90;;;;;;5036229;28;20029;-85
2021/10/14 08:04:45;;;;;;;1999.90;999.90;;;6.60;99.90;;;;;;5018773;28;20032;-83
2021/10/14 08:07:11;;;;;;;1999.90;999.90;;;6.70;99.90;;;;;;5018452;28;20076;-86
2021/10/14 08:09:36;;;;;;;1999.90;999.90;;;6.80;99.90;;;;;;5018618;28;20025;-85
2021/10/14 08:12:02;;;;;;;1999.90;999.90;;;7.00;99.90;;;;;;5036843;28;20052;-83
2021/10/14 08:14:28;;;;;;;1999.90;999.90;;;7.20;99.90;;;;;;5035058;28;20167;-82
2021/10/14 08:16:54;;;;;;;1999.90;999.90;;;7.30;99.90;;;;;;5034861;28;20423;-82
2021/10/14 08:19:20;;;;;;;1999.90;999.90;;;7.50;99.90;;;;;;5016935;28;20025;-79
2021/10/14 08:21:45;;;;;;;1999.90;999.90;;;7.60;99.90;;;;;;5017120;28;20032;-81
2021/10/14 08:24:11;;;;;;;1999.90;999.90;;;7.80;99.90;;;;;;5017016;28;20385;-81
2021/10/14 08:26:37;;;;;;;1999.90;999.90;;;7.90;99.90;;;;;;5017226;28;20030;-79
2021/10/14 08:29:02;;;;;;;1999.90;999.90;;;8.10;99.10;;;;;;5017691;28;20548;-83
2021/10/14 08:31:28;;;;;;;1999.90;999.90;;;8.20;98.60;;;;;;5017241;28;20030;-87
2021/10/14 08:33:54;;;;;;;1999.90;999.90;;;8.30;97.30;;;;;;5016590;28;20047;-81
2021/10/14 08:36:20;;;;;;;1999.90;999.90;;;8.40;96.20;;;;;;5016007;28;20025;-82
2021/10/14 08:38:47;;;;;;;1999.90;999.90;;;8.50;93.30;;;;;;5016438;28;20025;-81
2021/10/14 08:41:18;;;;;;;1999.90;999.90;;;8.60;94.40;;;;;;5015856;28;20025;-81
2021/10/14 08:43:46;;;;;;;1999.90;999.90;;;8.80;93.60;;;;;;5016252;28;20048;-82
2021/10/14 08:46:12;;;;;;;1999.90;999.90;;;9.00;93.60;;;;;;5016114;28;20021;-82
2021/10/14 08:48:38;;;;;;;1999.90;999.90;;;9.10;92.80;;;;;;5016041;28;20026;-82
2021/10/14 08:51:03;;;;;;;1999.90;999.90;;;9.30;91.60;;;;;;5016051;28;20040;-82
2021/10/14 08:53:29;;;;;;;1999.90;999.90;;;9.40;88.90;;;;;;5015847;28;20044;-84
2021/10/14 08:55:55;;;;;;;1999.90;999.90;;;9.50;84.90;;;;;;5016139;28;20171;-80
2021/10/14 08:58:21;;;;;;;1999.90;999.90;;;9.60;82.80;;;;;;5015787;28;20465;-82
2021/10/14 09:01:06;;;;;;;1999.90;999.90;;;9.70;81.00;;;;;;5015843;28;20032;-81
2021/10/14 09:03:33;;;;;;;1999.90;999.90;;;9.80;82.50;;;;;;5016153;28;20021;-81
2021/10/14 09:05:58;;;;;;;1999.90;999.90;;;9.90;81.90;;;;;;5016508;28;20045;-83
2021/10/14 09:08:48;;;;;;;1999.90;999.90;;;9.90;80.10;;;;;;5016558;28;20127;-82
2021/10/14 09:11:24;;;;;;;1999.90;999.90;;;10.80;92.60;;;;;;5018039;28;20026;-83
2021/10/14 09:13:58;;;;;;;1999.90;999.90;;;11.80;81.40;;;;;;5019714;28;20171;-86
2021/10/14 09:16:33;;;;;;;1999.90;999.90;;;11.90;74.00;;;;;;5018470;28;20018;-86
2021/10/14 09:19:19;;;;;;;1999.90;999.90;;;11.90;73.00;;;;;;5016143;28;20040;-83
2021/10/14 09:21:59;;;;;;;1999.90;999.90;;;11.70;70.90;;;;;;5016139;28;20098;-82
2021/10/14 09:24:35;;;;;;;1999.90;999.90;;;11.40;69.70;;;;;;5015932;28;20495;-82
2021/10/14 09:27:04;;;;;;;1999.90;999.90;;;11.40;70.30;;;;;;5016091;28;20022;-81
2021/10/14 09:29:30;;;;;;;1999.90;999.90;;;11.20;70.70;;;;;;5016784;28;20432;-82
2021/10/14 09:32:02;;;;;;;1999.90;999.90;;;11.10;70.00;;;;;;5032335;28;20029;-81
2021/10/14 09:34:29;;;;;;;1999.90;999.90;;;11.00;70.50;;;;;;5032803;28;20041;-85
2021/10/14 09:36:57;;;;;;;1999.90;999.90;;;11.00;70.10;;;;;;5032802;28;20018;-84
2021/10/14 09:39:23;;;;;;;1999.90;999.90;;;11.10;71.70;;;;;;5032758;28;20461;-83
2021/10/14 09:41:48;;;;;;;1999.90;999.90;;;11.20;71.20;;;;;;5032646;28;20028;-81
2021/10/14 09:44:16;;;;;;;1999.90;999.90;;;11.30;70.50;;;;;;5032803;28;20461;-82
2021/10/14 09:46:48;;;;;;;1999.90;999.90;;;11.30;70.90;;;;;;5032217;28;20502;-82
2021/10/14 09:49:20;;;;;;;1999.90;999.90;;;11.20;70.10;;;;;;5032116;28;20021;-82
2021/10/14 09:51:46;;;;;;;1999.90;999.90;;;11.30;70.00;;;;;;5031616;28;20033;-80
2021/10/14 09:54:12;;;;;;;1999.90;999.90;;;11.30;68.80;;;;;;5030066;28;20489;-79
2021/10/14 09:56:38;;;;;;;1999.90;999.90;;;11.40;69.80;;;;;;5032511;28;20113;-81
2021/10/14 09:59:05;;;;;;;1999.90;999.90;;;11.40;69.00;;;;;;5031536;28;20033;-79
2021/10/14 10:01:33;;;;;;;1999.90;999.90;;;11.40;68.90;;;;;;5032862;28;20511;-79
2021/10/14 10:04:01;;;;;;;1999.90;999.90;;;11.40;69.30;;;;;;5031628;28;20107;-80
2021/10/14 10:06:29;;;;;;;1999.90;999.90;;;11.60;68.90;;;;;;5031239;28;20029;-83
2021/10/14 10:08:58;;;;;;;1999.90;999.90;;;11.50;68.90;;;;;;5031418;28;20026;-78
2021/10/14 10:11:25;;;;;;;1999.90;999.90;;;11.60;68.80;;;;;;5031243;28;20017;-80
2021/10/14 10:13:53;;;;;;;1999.90;999.90;;;11.50;68.10;;;;;;5032800;28;20524;-82
2021/10/14 10:16:21;;;;;;;1999.90;999.90;;;11.60;69.30;;;;;;5031808;28;20076;-82
2021/10/14 10:18:59;;;;;;;1999.90;999.90;;;11.60;70.80;;;;;;5031786;28;20113;-80
2021/10/14 10:21:31;;;;;;;1999.90;999.90;;;11.70;69.30;;;;;;5031563;28;20566;-80
2021/10/14 10:24:30;;;;;;;1999.90;999.90;;;11.60;70.60;;;;;;5031638;28;20389;-80
2021/10/14 10:26:57;;;;;;;1999.90;999.90;;;11.70;71.30;;;;;;5031033;28;20037;-82
2021/10/14 10:29:28;;;;;;;1999.90;999.90;;;11.80;71.50;;;;;;5031753;28;20547;-81
2021/10/14 10:31:57;;;;;;;1999.90;999.90;;;11.90;70.90;;;;;;5031463;28;20022;-80
2021/10/14 10:34:30;;;;;;;1999.90;999.90;;;11.90;69.70;;;;;;5031545;28;20041;-80
2021/10/14 10:36:56;;;;;;;1999.90;999.90;;;12.10;70.10;;;;;;5031595;28;20073;-80
2021/10/14 10:40:12;;;;;;;1999.90;999.90;;;12.20;69.50;;;;;;5031607;28;20029;-80
2021/10/14 10:42:53;;;;;;;1999.90;999.90;;;12.20;69.10;;;;;;5032319;28;20026;-80
2021/10/14 10:45:22;;;;;;;1999.90;999.90;;;12.30;68.70;;;;;;5031198;28;20440;-80
2021/10/14 10:47:54;;;;;;;1999.90;999.90;;;12.40;69.40;;;;;;5031436;28;20017;-80
2021/10/14 10:50:42;;;;;;;1999.90;999.90;;;12.60;69.80;;;;;;5031337;28;20025;-80
2021/10/14 10:53:23;;;;;;;1999.90;999.90;;;12.50;67.20;;;;;;5031123;28;20041;-83
2021/10/14 10:55:56;;;;;;;1999.90;999.90;;;12.60;67.20;;;;;;5031385;28;20018;-82
2021/10/14 10:58:31;;;;;;;1999.90;999.90;;;12.80;67.90;;;;;;5031211;28;20187;-81
2021/10/14 11:00:57;;;;;;;1999.90;999.90;;;13.00;68.00;;;;;;5030294;28;20031;-78
2021/10/14 11:03:25;;;;;;;1999.90;999.90;;;13.20;67.00;;;;;;5030145;28;20041;-76
2021/10/14 11:05:59;;;;;;;1999.90;999.90;;;13.50;66.40;;;;;;5034411;28;20044;-82
2021/10/14 11:08:31;;;;;;;1999.90;999.90;;;13.60;66.00;;;;;;5035679;28;20024;-80
2021/10/14 11:11:03;;;;;;;1999.90;999.90;;;13.70;64.60;;;;;;5035592;28;20021;-81
2021/10/14 11:13:32;;;;;;;1999.90;999.90;;;13.60;64.00;;;;;;5035329;28;20381;-78
2021/10/14 11:15:58;;;;;;;1999.90;999.90;;;13.50;63.90;;;;;;5035650;28;20103;-79
2021/10/14 11:18:26;;;;;;;1999.90;999.90;;;13.50;64.50;;;;;;5035466;28;20055;-79
2021/10/14 11:21:00;;;;;;;1999.90;999.90;;;13.30;64.50;;;;;;5035453;28;20026;-73
2021/10/14 11:23:31;;;;;;;1999.90;999.90;;;13.30;65.00;;;;;;5035408;28;20346;-81
2021/10/14 11:26:19;;;;;;;1999.90;999.90;;;13.30;64.30;;;;;;5035171;28;20032;-79
2021/10/14 11:28:48;;;;;;;1999.90;999.90;;;13.40;64.80;;;;;;5033698;28;20033;-77
2021/10/14 11:31:37;;;;;;;1999.90;999.90;;;13.40;64.90;;;;;;5032228;28;20045;-79
2021/10/14 11:34:24;;;;;;;1999.90;999.90;;;13.40;63.50;;;;;;5032181;28;20041;-80
2021/10/14 11:36:56;;;;;;;1999.90;999.90;;;13.50;63.90;;;;;;5032441;28;20026;-79
2021/10/14 11:39:33;;;;;;;1999.90;999.90;;;13.30;64.20;;;;;;5033259;28;20080;-80
2021/10/14 11:42:03;;;;;;;1999.90;999.90;;;13.30;63.90;;;;;;5032232;28;20561;-79
2021/10/14 11:44:34;;;;;;;1999.90;999.90;;;13.30;64.60;;;;;;5032085;28;20033;-80
2021/10/14 11:47:01;;;;;;;1999.90;999.90;;;13.30;64.80;;;;;;5032077;28;20029;-79
2021/10/14 11:49:27;;;;;;;1999.90;999.90;;;13.20;63.60;;;;;;5031620;28;20030;-78
2021/10/14 11:51:53;;;;;;;1999.90;999.90;;;13.20;64.10;;;;;;5033209;28;20373;-78
2021/10/14 11:54:20;;;;;;;1999.90;999.90;;;13.30;65.70;;;;;;5031793;28;20029;-78
2021/10/14 11:56:52;;;;;;;1999.90;999.90;;;13.20;67.40;;;;;;5033841;28;20017;-89
2021/10/14 11:59:20;;;;;;;1999.90;999.90;;;13.30;67.50;;;;;;5040832;28;20033;-84
2021/10/14 12:02:04;;;;;;;1999.90;999.90;;;13.20;68.10;;;;;;5033358;28;20034;-82
2021/10/14 12:04:34;;;;;;;1999.90;999.90;;;13.30;67.60;;;;;;5032721;28;20120;-82
2021/10/14 12:07:00;;;;;;;1999.90;999.90;;;13.40;67.10;;;;;;5031921;28;20122;-86